Mowry, Pennsylvania
Current Conditions -  °F | °C
As of 11:55 AM on Saturday 25 Oct 2014 (Local Time) from KHZL Reporting Station
Scattered Clouds Scattered Clouds  
Wind Chill: 14°   Ceiling: Unl
Heat Index: 14°   Visibility: 10mi
Dew Point:   Wind: 7mph
Humidity: 55%   Direction: 280°W
Pressure: 29.85"   Gusts: NA
Location:  40.7564°N, 76.3531°W
Report Text: KHZL 251555Z AUTO 28006KT 270V330 10SM SCT039 14/05 A2985 RMK AO2
Loading
Personal Weather Stations






























Interactive Weather Map
Tropical Storm Tracking
New forecast layout! Learn more

10-Day Weather Forecast

Advertisements
Track Severe Weather on mobile